createdAt,value
2017-11-13T00:01:36.503Z,95692.38
2017-11-13T00:04:02.312Z,95685.11
2017-11-13T00:06:28.186Z,95688.22
2017-11-13T00:08:53.978Z,95699.00
2017-11-13T00:11:19.830Z,95696.00
2017-11-13T00:13:45.630Z,95697.91
2017-11-13T00:16:11.448Z,95707.34
2017-11-13T00:18:37.224Z,95715.42
2017-11-13T00:21:03.040Z,95719.78
2017-11-13T00:23:28.823Z,95726.59
2017-11-13T00:25:54.639Z,95730.66
2017-11-13T00:28:20.447Z,95735.13
2017-11-13T00:30:46.243Z,95743.05
2017-11-13T00:33:12.042Z,95748.73
2017-11-13T00:35:37.875Z,95754.39
2017-11-13T00:38:03.711Z,95763.97
2017-11-13T00:40:29.549Z,95759.44
2017-11-13T00:42:55.355Z,95758.58
2017-11-13T00:45:21.158Z,95757.23
2017-11-13T00:47:46.993Z,95760.39
2017-11-13T00:50:12.767Z,95756.22
2017-11-13T00:52:38.603Z,95757.72
2017-11-13T00:55:04.403Z,95761.23
2017-11-13T00:57:30.197Z,95761.98
2017-11-13T00:59:56.034Z,95760.75
2017-11-13T01:02:21.833Z,95761.23
2017-11-13T01:04:47.681Z,95764.77
2017-11-13T01:07:13.488Z,95761.34
2017-11-13T01:09:39.273Z,95762.52
2017-11-13T01:12:05.080Z,95761.98
2017-11-13T01:14:30.896Z,95767.53
2017-11-13T01:16:56.701Z,95764.16
2017-11-13T01:19:22.507Z,95755.30
2017-11-13T01:21:48.293Z,95753.89
2017-11-13T01:24:14.126Z,95754.80
2017-11-13T01:26:39.924Z,95768.41
2017-11-13T01:29:05.848Z,95764.28
2017-11-13T01:31:31.691Z,95776.19
2017-11-13T01:33:57.530Z,95785.27
2017-11-13T01:36:23.325Z,95780.01
2017-11-13T01:38:49.111Z,95796.36
2017-11-13T01:41:14.954Z,95802.30
2017-11-13T01:43:40.758Z,95797.11
2017-11-13T01:46:06.590Z,95807.11
2017-11-13T01:48:32.409Z,95805.52
2017-11-13T01:50:58.206Z,95813.66
2017-11-13T01:53:24.006Z,95809.84
2017-11-13T01:55:49.897Z,95805.89
2017-11-13T01:58:15.722Z,95807.60
2017-11-13T02:00:41.522Z,95810.71
2017-11-13T02:03:07.382Z,95807.08
2017-11-13T02:05:33.211Z,95811.80
2017-11-13T02:07:59.027Z,95822.27
2017-11-13T02:10:24.861Z,95825.33
2017-11-13T02:12:50.686Z,95815.50
2017-11-13T02:15:16.512Z,95834.27
2017-11-13T02:17:42.353Z,95835.81
2017-11-13T02:20:08.194Z,95846.47
2017-11-13T02:22:34.116Z,95837.13
2017-11-13T02:24:59.919Z,95846.80
2017-11-13T02:27:25.777Z,95849.23
2017-11-13T02:29:51.567Z,95849.30
2017-11-13T02:32:17.387Z,95848.38
2017-11-13T02:34:43.249Z,95847.98
2017-11-13T02:37:10.286Z,95846.64
2017-11-13T02:39:36.170Z,95854.17
2017-11-13T02:42:02.041Z,95850.44
2017-11-13T02:44:27.924Z,95853.81
2017-11-13T02:46:53.904Z,95857.56
2017-11-13T02:49:19.749Z,95855.16
2017-11-13T02:51:45.549Z,95853.59
2017-11-13T02:54:11.354Z,95858.13
2017-11-13T02:56:37.182Z,95860.09
2017-11-13T02:59:02.996Z,95860.76
2017-11-13T03:01:28.809Z,95865.75
2017-11-13T03:03:54.627Z,95864.08
2017-11-13T03:06:20.457Z,95869.69
2017-11-13T03:08:46.286Z,95876.98
2017-11-13T03:11:12.108Z,95880.95
2017-11-13T03:13:37.947Z,95887.58
2017-11-13T03:16:03.759Z,95888.84
2017-11-13T03:18:29.546Z,95891.86
2017-11-13T03:20:55.354Z,95897.83
2017-11-13T03:23:21.140Z,95901.72
2017-11-13T03:25:46.953Z,95897.43
2017-11-13T03:28:12.745Z,95891.84
2017-11-13T03:30:38.538Z,95898.83
2017-11-13T03:33:04.954Z,95893.80
2017-11-13T03:35:30.823Z,95903.27
2017-11-13T03:37:56.648Z,95899.70
2017-11-13T03:40:22.414Z,95897.94
2017-11-13T03:42:48.213Z,95904.91
2017-11-13T03:45:14.016Z,95907.19
2017-11-13T03:47:39.814Z,95910.58
2017-11-13T03:50:05.615Z,95918.72
2017-11-13T03:52:31.405Z,95921.34
2017-11-13T03:54:57.206Z,95929.68
2017-11-13T03:57:23.074Z,95927.80
2017-11-13T03:59:48.858Z,95935.47
2017-11-13T04:02:14.637Z,95947.16
2017-11-13T04:04:40.466Z,95945.77
2017-11-13T04:07:06.274Z,95955.51
2017-11-13T04:09:32.060Z,95955.36
2017-11-13T04:11:57.887Z,95960.23
2017-11-13T04:14:23.712Z,95958.19
2017-11-13T04:16:49.513Z,95964.05
2017-11-13T04:19:15.343Z,95963.45
2017-11-13T04:21:41.146Z,95965.44
2017-11-13T04:24:06.950Z,95971.55
2017-11-13T04:26:32.788Z,95975.78
2017-11-13T04:28:58.609Z,95990.27
2017-11-13T04:31:24.407Z,95993.09
2017-11-13T04:33:50.232Z,95994.48
2017-11-13T04:36:16.019Z,95991.75
2017-11-13T04:38:41.828Z,95993.63
2017-11-13T04:41:07.632Z,95991.49
2017-11-13T04:43:33.418Z,95997.27
2017-11-13T04:45:59.234Z,96001.44
2017-11-13T04:48:25.014Z,96007.71
2017-11-13T04:50:50.824Z,96012.69
2017-11-13T04:53:16.613Z,96019.73
2017-11-13T04:55:42.412Z,96021.48
2017-11-13T04:58:08.225Z,96019.83
2017-11-13T05:00:34.046Z,96029.22
2017-11-13T05:02:59.862Z,96028.28
2017-11-13T05:05:25.688Z,96029.55
2017-11-13T05:07:51.539Z,96025.96
2017-11-13T05:10:17.333Z,96028.96
2017-11-13T05:12:43.144Z,96025.64
2017-11-13T05:15:09.017Z,96017.81
2017-11-13T05:17:34.879Z,96017.13
2017-11-13T05:20:00.715Z,96020.17
2017-11-13T05:22:26.567Z,96034.48
2017-11-13T05:24:52.386Z,96039.84
2017-11-13T05:27:18.204Z,96044.13
2017-11-13T05:29:44.021Z,96046.40
2017-11-13T05:32:09.861Z,96061.45
2017-11-13T05:34:35.666Z,96069.17
2017-11-13T05:37:01.484Z,96074.71
2017-11-13T05:39:27.290Z,96076.11
2017-11-13T05:41:53.144Z,96088.39
2017-11-13T05:44:18.939Z,96093.05
2017-11-13T05:46:44.766Z,96099.13
2017-11-13T05:49:10.631Z,96097.67
2017-11-13T05:51:36.438Z,96100.63
2017-11-13T05:54:02.239Z,96094.62
2017-11-13T05:56:28.079Z,96098.42
2017-11-13T05:58:53.930Z,96096.97
2017-11-13T06:01:19.728Z,96092.48
2017-11-13T06:03:45.548Z,96091.51
2017-11-13T06:06:11.395Z,96089.52
2017-11-13T06:08:37.214Z,96096.83
2017-11-13T06:11:03.082Z,96096.77
2017-11-13T06:13:29.294Z,96106.32
2017-11-13T06:15:55.129Z,96114.30
2017-11-13T06:18:20.943Z,96123.84
2017-11-13T06:20:46.750Z,96128.95
2017-11-13T06:23:12.574Z,96134.16
2017-11-13T06:25:38.433Z,96139.68
2017-11-13T06:28:04.280Z,96140.28
2017-11-13T06:30:30.080Z,96137.76
2017-11-13T06:32:55.882Z,96139.20
2017-11-13T06:35:21.733Z,96138.59
2017-11-13T06:37:47.570Z,96146.03
2017-11-13T06:40:13.332Z,96148.59
2017-11-13T06:42:39.133Z,96150.75
2017-11-13T06:45:04.940Z,96154.98
2017-11-13T06:47:30.783Z,96158.31
2017-11-13T06:49:56.590Z,96162.81
2017-11-13T06:52:22.365Z,96170.43
2017-11-13T06:54:48.139Z,96178.77
2017-11-13T06:57:13.895Z,96190.56
2017-11-13T06:59:39.669Z,96190.02
2017-11-13T07:02:05.459Z,96194.60
2017-11-13T07:04:31.251Z,96201.16
2017-11-13T07:06:57.028Z,96197.77
2017-11-13T07:09:22.828Z,96198.69
2017-11-13T07:11:48.616Z,96206.98
2017-11-13T07:14:14.404Z,96216.55
2017-11-13T07:16:40.189Z,96216.98
2017-11-13T07:19:05.965Z,96221.37
2017-11-13T07:21:31.752Z,96235.61
2017-11-13T07:23:57.524Z,96240.30
2017-11-13T07:26:23.324Z,96244.59
2017-11-13T07:28:49.100Z,96248.52
2017-11-13T07:31:14.902Z,96259.04
2017-11-13T07:33:40.748Z,96262.95
2017-11-13T07:36:06.525Z,96272.30
2017-11-13T07:38:32.337Z,96277.81
2017-11-13T07:40:58.139Z,96274.81
2017-11-13T07:43:23.945Z,96287.59
2017-11-13T07:45:49.704Z,96291.94
2017-11-13T07:48:15.485Z,96291.77
2017-11-13T07:50:41.274Z,96293.53
2017-11-13T07:53:07.040Z,96298.16
2017-11-13T07:55:32.832Z,96299.77
2017-11-13T07:57:58.604Z,96294.72
2017-11-13T08:00:24.360Z,96303.85
2017-11-13T08:02:50.152Z,96301.03
2017-11-13T08:05:15.914Z,96303.85
2017-11-13T08:07:41.688Z,96296.50
2017-11-13T08:10:07.472Z,96294.19
2017-11-13T08:12:33.236Z,96303.27
2017-11-13T08:14:59.015Z,96305.00
2017-11-13T08:17:24.809Z,96298.50
2017-11-13T08:19:50.571Z,96304.95
2017-11-13T08:22:16.374Z,96304.28
2017-11-13T08:24:42.173Z,96315.97
2017-11-13T08:27:07.961Z,96318.88
2017-11-13T08:29:33.736Z,96324.80
2017-11-13T08:31:59.544Z,96332.91
2017-11-13T08:34:25.320Z,96334.26
2017-11-13T08:36:51.115Z,96336.52
2017-11-13T08:39:16.881Z,96335.81
2017-11-13T08:41:42.633Z,96339.58
2017-11-13T08:44:08.412Z,96348.06
2017-11-13T08:46:34.229Z,96344.63
2017-11-13T08:48:59.990Z,96349.25
2017-11-13T08:51:25.791Z,96357.48
2017-11-13T08:53:51.572Z,96355.48
2017-11-13T08:56:17.368Z,96351.72
2017-11-13T08:58:43.152Z,96357.95
2017-11-13T09:01:08.978Z,96355.11
2017-11-13T09:03:34.777Z,96356.75
2017-11-13T09:06:00.563Z,96353.10
2017-11-13T09:08:26.336Z,96356.77
2017-11-13T09:10:52.132Z,96357.03
2017-11-13T09:13:17.892Z,96359.84
2017-11-13T09:15:43.676Z,96357.25
2017-11-13T09:18:09.456Z,96361.23
2017-11-13T09:20:35.241Z,96363.34
2017-11-13T09:23:01.060Z,96373.07
2017-11-13T09:25:26.856Z,96372.97
2017-11-13T09:27:52.644Z,96376.73
2017-11-13T09:30:18.440Z,96383.45
2017-11-13T09:32:44.213Z,96384.30
2017-11-13T09:35:09.964Z,96388.72
2017-11-13T09:37:35.786Z,96389.36
2017-11-13T09:40:01.557Z,96389.20
2017-11-13T09:42:27.396Z,96392.11
2017-11-13T09:44:53.159Z,96397.70
2017-11-13T09:47:18.928Z,96398.45
2017-11-13T09:49:44.714Z,96405.02
2017-11-13T09:52:10.496Z,96407.88
2017-11-13T09:54:36.313Z,96401.25
2017-11-13T09:57:02.080Z,96404.11
2017-11-13T09:59:27.875Z,96402.00
2017-11-13T10:01:53.673Z,96406.98
2017-11-13T10:04:19.441Z,96408.08
2017-11-13T10:06:45.278Z,96406.95
2017-11-13T10:09:11.066Z,96410.13
2017-11-13T10:11:36.856Z,96408.14
2017-11-13T10:14:02.673Z,96415.65
2017-11-13T10:16:28.504Z,96413.95
2017-11-13T10:18:54.317Z,96422.42
2017-11-13T10:21:20.109Z,96429.13
2017-11-13T10:23:45.935Z,96425.17
2017-11-13T10:26:11.764Z,96426.91
2017-11-13T10:28:37.552Z,96430.17
2017-11-13T10:31:03.329Z,96428.30
2017-11-13T10:33:29.123Z,96424.84
2017-11-13T10:35:54.880Z,96424.44
2017-11-13T10:38:20.640Z,96429.48
2017-11-13T10:40:46.424Z,96426.91
2017-11-13T10:43:12.189Z,96428.20
2017-11-13T10:45:37.963Z,96428.36
2017-11-13T10:48:03.788Z,96436.77
2017-11-13T10:50:29.588Z,96441.23
2017-11-13T10:52:55.414Z,96442.75
2017-11-13T10:55:21.205Z,96446.31
2017-11-13T10:57:47.069Z,96448.36
2017-11-13T11:00:13.306Z,96446.20
2017-11-13T11:02:39.112Z,96447.55
2017-11-13T11:05:04.944Z,96432.28
2017-11-13T11:07:30.788Z,96436.52
2017-11-13T11:09:56.570Z,96432.34
2017-11-13T11:12:22.408Z,96438.62
2017-11-13T11:14:53.128Z,96449.17
2017-11-13T11:17:23.842Z,96442.08
2017-11-13T11:19:52.465Z,96445.12
2017-11-13T11:22:19.221Z,96448.63
2017-11-13T11:24:45.022Z,96445.45
2017-11-13T11:27:14.796Z,96450.72
2017-11-13T11:29:46.585Z,96458.16
2017-11-13T11:32:12.388Z,96465.25
2017-11-13T11:34:39.140Z,96466.32
2017-11-13T11:37:05.816Z,96457.19
2017-11-13T11:39:31.587Z,96460.62
2017-11-13T11:41:57.401Z,96459.47
2017-11-13T11:47:29.680Z,96462.05
2017-11-13T11:49:55.473Z,96454.05
2017-11-13T11:52:21.285Z,96459.11
2017-11-13T11:54:48.972Z,96467.30
2017-11-13T11:57:17.676Z,96477.00
2017-11-13T11:59:43.480Z,96474.39
2017-11-13T12:02:09.239Z,96483.47
2017-11-13T12:04:35.024Z,96484.12
2017-11-13T12:07:00.817Z,96486.22
2017-11-13T12:09:26.588Z,96487.13
2017-11-13T12:11:52.384Z,96491.14
2017-11-13T12:14:18.161Z,96491.22
2017-11-13T12:16:43.960Z,96489.48
2017-11-13T12:19:09.767Z,96496.28
2017-11-13T12:21:35.577Z,96499.11
2017-11-13T12:24:01.368Z,96507.12
2017-11-13T12:26:27.157Z,96506.39
2017-11-13T12:28:52.916Z,96509.13
2017-11-13T12:31:18.684Z,96504.92
2017-11-13T12:33:44.469Z,96500.73
2017-11-13T12:36:10.220Z,96502.45
2017-11-13T12:38:36.049Z,96502.83
2017-11-13T12:41:01.812Z,96506.20
2017-11-13T12:43:27.600Z,96516.02
2017-11-13T12:45:53.352Z,96516.36
2017-11-13T12:48:19.100Z,96515.23
2017-11-13T12:50:44.895Z,96512.65
2017-11-13T12:53:10.677Z,96518.50
2017-11-13T12:55:36.444Z,96526.95
2017-11-13T12:58:02.245Z,96524.31
2017-11-13T13:00:28.033Z,96529.65
2017-11-13T13:02:53.842Z,96536.45
2017-11-13T13:05:19.905Z,96544.83
2017-11-13T13:07:45.690Z,96541.11
2017-11-13T13:10:11.456Z,96541.95
2017-11-13T13:12:37.242Z,96544.83
2017-11-13T13:15:03.013Z,96552.61
2017-11-13T13:17:28.789Z,96550.70
2017-11-13T13:19:54.557Z,96541.88
2017-11-13T13:22:20.367Z,96545.97
2017-11-13T13:24:46.161Z,96548.17
2017-11-13T13:27:11.924Z,96543.50
2017-11-13T13:29:37.693Z,96547.81
2017-11-13T13:32:03.582Z,96553.55
2017-11-13T13:34:30.124Z,96557.50
2017-11-13T13:36:55.912Z,96563.40
2017-11-13T13:39:21.688Z,96556.61
2017-11-13T13:41:47.460Z,96558.30
2017-11-13T13:44:13.229Z,96557.00
2017-11-13T13:46:38.991Z,96558.36
2017-11-13T13:49:04.840Z,96552.61
2017-11-13T13:51:30.647Z,96556.33
2017-11-13T13:53:56.467Z,96553.84
2017-11-13T13:56:22.240Z,96547.55
2017-11-13T13:58:48.024Z,96550.70
2017-11-13T14:01:13.777Z,96549.92
2017-11-13T14:03:39.570Z,96556.92
2017-11-13T14:06:05.374Z,96563.80
2017-11-13T14:08:31.227Z,96571.55
2017-11-13T14:10:57.050Z,96575.27
2017-11-13T14:13:22.893Z,96574.58
2017-11-13T14:15:48.716Z,96584.20
2017-11-13T14:18:14.479Z,96583.23
2017-11-13T14:20:40.260Z,96589.87
2017-11-13T14:23:06.048Z,96593.05
2017-11-13T14:25:31.832Z,96586.55
2017-11-13T14:27:57.612Z,96598.02
2017-11-13T14:30:23.372Z,96599.88
2017-11-13T14:32:49.136Z,96603.73
2017-11-13T14:35:14.896Z,96602.02
2017-11-13T14:37:40.725Z,96607.84
2017-11-13T14:40:06.528Z,96609.82
2017-11-13T14:42:32.296Z,96606.98
2017-11-13T14:44:58.084Z,96617.77
2017-11-13T14:47:23.899Z,96622.73
2017-11-13T14:49:49.689Z,96624.41
2017-11-13T14:52:15.449Z,96620.14
2017-11-13T14:54:41.219Z,96625.45
2017-11-13T14:57:07.057Z,96636.06
2017-11-13T14:59:32.832Z,96638.19
2017-11-13T15:01:58.613Z,96642.34
2017-11-13T15:04:24.480Z,96642.46
2017-11-13T15:06:50.261Z,96642.46
2017-11-13T15:09:16.042Z,96646.98
2017-11-13T15:11:41.829Z,96650.41
2017-11-13T15:14:07.723Z,96655.36
2017-11-13T15:16:33.623Z,96656.18
2017-11-13T15:18:59.387Z,96660.48
2017-11-13T15:21:25.174Z,96659.50
2017-11-13T15:23:50.948Z,96667.61
2017-11-13T15:26:16.904Z,96667.91
2017-11-13T15:28:42.688Z,96671.36
2017-11-13T15:31:08.460Z,96671.91
2017-11-13T15:33:34.249Z,96676.75
2017-11-13T15:36:00.010Z,96685.21
2017-11-13T15:38:25.775Z,96685.02
2017-11-13T15:40:51.568Z,96688.48
2017-11-13T15:43:17.325Z,96683.63
2017-11-13T15:45:43.236Z,96689.03
2017-11-13T15:48:08.999Z,96696.41
2017-11-13T15:50:35.182Z,96701.83
2017-11-13T15:53:01.023Z,96700.22
2017-11-13T15:55:26.780Z,96703.80
2017-11-13T15:57:52.574Z,96705.38
2017-11-13T16:00:18.359Z,96712.80
2017-11-13T16:02:44.140Z,96714.17
2017-11-13T16:05:09.915Z,96705.14
2017-11-13T16:07:35.705Z,96708.28
2017-11-13T16:10:01.985Z,96711.25
2017-11-13T16:12:27.771Z,96716.46
2017-11-13T16:14:53.552Z,96710.73
2017-11-13T16:17:19.335Z,96713.54
2017-11-13T16:19:45.174Z,96720.72
2017-11-13T16:22:10.973Z,96731.36
2017-11-13T16:24:36.770Z,96736.86
2017-11-13T16:27:02.572Z,96746.22
2017-11-13T16:29:28.397Z,96749.22
2017-11-13T16:31:54.225Z,96749.42
2017-11-13T16:34:20.028Z,96750.76
2017-11-13T16:36:45.814Z,96751.19
2017-11-13T16:39:11.653Z,96753.52
2017-11-13T16:41:37.454Z,96754.68
2017-11-13T16:44:03.276Z,96750.19
2017-11-13T16:46:29.292Z,96751.57
2017-11-13T16:48:55.112Z,96756.45
2017-11-13T16:51:20.937Z,96764.41
2017-11-13T16:53:46.727Z,96764.02
2017-11-13T16:56:38.943Z,96764.53
2017-11-13T16:59:04.802Z,96771.22
2017-11-13T17:01:30.605Z,96777.89
2017-11-13T17:03:56.404Z,96778.87
2017-11-13T17:06:22.198Z,96791.68
2017-11-13T17:08:47.986Z,96792.67
2017-11-13T17:11:13.769Z,96789.19
2017-11-13T17:13:39.535Z,96795.95
2017-11-13T17:16:05.351Z,96795.14
2017-11-13T17:18:31.126Z,96797.42
2017-11-13T17:20:56.891Z,96797.91
2017-11-13T17:23:22.676Z,96801.68
2017-11-13T17:25:48.448Z,96809.13
2017-11-13T17:28:14.279Z,96814.27
2017-11-13T17:30:40.046Z,96818.02
2017-11-13T17:33:05.840Z,96818.52
2017-11-13T17:35:31.602Z,96825.05
2017-11-13T17:37:57.369Z,96827.88
2017-11-13T17:40:23.151Z,96831.56
2017-11-13T17:42:48.927Z,96830.50
2017-11-13T17:45:14.729Z,96826.89
2017-11-13T17:47:40.507Z,96840.92
2017-11-13T17:50:06.317Z,96834.34
2017-11-13T17:52:32.081Z,96834.84
2017-11-13T17:54:57.856Z,96844.16
2017-11-13T17:57:23.664Z,96845.62
2017-11-13T17:59:49.432Z,96857.97
2017-11-13T18:02:15.208Z,96864.80
2017-11-13T18:04:40.997Z,96855.58
2017-11-13T18:07:06.773Z,96860.27
2017-11-13T18:09:32.535Z,96859.80
2017-11-13T18:11:58.291Z,96854.39
2017-11-13T18:14:24.061Z,96859.30
2017-11-13T18:16:49.841Z,96859.30
2017-11-13T18:19:15.625Z,96866.02
2017-11-13T18:21:41.430Z,96869.16
2017-11-13T18:24:07.209Z,96869.17
2017-11-13T18:26:32.981Z,96869.39
2017-11-13T18:28:58.771Z,96872.23
2017-11-13T18:31:24.528Z,96870.17
2017-11-13T18:33:50.324Z,96880.66
2017-11-13T18:36:16.100Z,96879.11
2017-11-13T18:38:41.862Z,96881.55
2017-11-13T18:41:07.638Z,96876.09
2017-11-13T18:43:33.420Z,96879.81
2017-11-13T18:45:59.195Z,96880.04
2017-11-13T18:48:24.953Z,96890.70
2017-11-13T18:50:50.719Z,96885.97
2017-11-13T18:53:16.483Z,96900.45
2017-11-13T18:55:42.257Z,96895.86
2017-11-13T18:58:08.040Z,96907.26
2017-11-13T19:00:33.831Z,96903.85
2017-11-13T19:02:59.601Z,96910.73
2017-11-13T19:05:25.391Z,96914.91
2017-11-13T19:07:51.160Z,96913.23
2017-11-13T19:10:16.924Z,96918.28
2017-11-13T19:12:42.707Z,96921.33
2017-11-13T19:15:08.482Z,96928.31
2017-11-13T19:17:34.251Z,96936.02
2017-11-13T19:20:00.034Z,96943.62
2017-11-13T19:22:25.804Z,96946.94
2017-11-13T19:24:51.592Z,96951.16
2017-11-13T19:27:17.361Z,96949.19
2017-11-13T19:29:43.156Z,96948.08
2017-11-13T19:32:08.950Z,96952.37
2017-11-13T19:34:34.756Z,96945.59
2017-11-13T19:37:00.523Z,96947.18
2017-11-13T19:39:26.338Z,96950.14
2017-11-13T19:41:52.104Z,96953.77
2017-11-13T19:44:17.963Z,96962.33
2017-11-13T19:46:43.874Z,96956.00
2017-11-13T19:49:09.775Z,96956.04
2017-11-13T19:51:35.728Z,96962.23
2017-11-13T19:54:01.695Z,96967.77
2017-11-13T19:56:27.686Z,96972.36
2017-11-13T19:58:53.805Z,96977.09
2017-11-13T20:01:42.919Z,96967.48
2017-11-13T20:20:54.904Z,96993.62
2017-11-13T20:23:44.714Z,96990.16
2017-11-13T20:26:42.410Z,96999.96
2017-11-13T20:29:39.996Z,97005.38
2017-11-13T20:32:36.811Z,97004.95
2017-11-13T20:42:26.420Z,97019.38
2017-11-13T21:02:01.158Z,97024.73
2017-11-13T21:21:10.212Z,97024.45
2017-11-13T21:24:07.142Z,97029.77
2017-11-13T21:26:32.907Z,97041.55
2017-11-13T21:46:07.236Z,97042.25
2017-11-13T21:48:33.026Z,97045.54
2017-11-13T21:51:22.550Z,97053.16
2017-11-13T21:54:19.574Z,97054.09
2017-11-13T21:57:17.123Z,97049.33
2017-11-13T22:16:41.919Z,97057.44
2017-11-13T22:32:32.288Z,97079.46
2017-11-13T22:35:22.147Z,97072.17
2017-11-13T22:38:19.372Z,97073.83
2017-11-13T22:41:16.721Z,97072.30
2017-11-13T22:44:14.677Z,97079.73
2017-11-13T22:47:12.548Z,97079.96
2017-11-13T22:50:10.287Z,97076.36
2017-11-13T22:53:08.116Z,97076.36
2017-11-13T23:12:15.727Z,97078.81
2017-11-13T23:18:03.422Z,97083.95
2017-11-13T23:37:39.630Z,97089.91
2017-11-13T23:40:05.463Z,97087.48
2017-11-13T23:42:55.162Z,97086.14
